createdAt,value
2018-07-16T00:00:17.982Z,99091.71
2018-07-16T00:02:45.854Z,99093.20
2018-07-16T00:05:13.706Z,99096.23
2018-07-16T00:07:41.511Z,99092.13
2018-07-16T00:10:09.329Z,99093.56
2018-07-16T00:12:37.177Z,99096.80
2018-07-16T00:15:05.004Z,99095.93
2018-07-16T00:17:33.159Z,99085.73
2018-07-16T00:20:01.045Z,99092.96
2018-07-16T00:22:28.898Z,99094.19
2018-07-16T00:24:56.694Z,99091.23
2018-07-16T00:27:24.466Z,99089.88
2018-07-16T00:29:52.233Z,99092.52
2018-07-16T00:32:20.133Z,99087.96
2018-07-16T00:34:47.967Z,99093.57
2018-07-16T00:37:15.761Z,99087.77
2018-07-16T00:39:43.549Z,99095.83
2018-07-16T00:42:11.459Z,99098.47
2018-07-16T00:44:39.258Z,99104.75
2018-07-16T00:47:07.285Z,99108.36
2018-07-16T00:49:35.283Z,99106.76
2018-07-16T00:52:03.075Z,99104.36
2018-07-16T00:54:31.678Z,99099.58
2018-07-16T00:56:59.471Z,99108.66
2018-07-16T00:59:27.340Z,99108.92
2018-07-16T01:01:55.209Z,99109.92
2018-07-16T01:04:23.074Z,99098.11
2018-07-16T01:06:50.890Z,99102.46
2018-07-16T01:09:18.697Z,99113.20
2018-07-16T01:11:46.481Z,99111.86
2018-07-16T01:14:14.404Z,99101.94
2018-07-16T01:16:42.307Z,99097.78
2018-07-16T01:19:10.078Z,99103.50
2018-07-16T01:21:37.845Z,99106.80
2018-07-16T01:24:05.690Z,99114.60
2018-07-16T01:26:33.530Z,99113.56
2018-07-16T01:29:01.366Z,99114.08
2018-07-16T01:31:29.202Z,99113.24
2018-07-16T01:33:56.974Z,99126.47
2018-07-16T01:36:24.767Z,99121.62
2018-07-16T01:38:52.623Z,99121.81
2018-07-16T01:41:20.493Z,99127.61
2018-07-16T01:43:48.296Z,99131.41
2018-07-16T01:46:16.114Z,99133.63
2018-07-16T01:48:43.909Z,99133.09
2018-07-16T01:51:11.752Z,99127.67
2018-07-16T01:53:39.535Z,99131.73
2018-07-16T01:56:07.429Z,99135.37
2018-07-16T01:58:35.242Z,99136.67
2018-07-16T02:01:03.578Z,99137.03
2018-07-16T02:03:33.281Z,99127.48
2018-07-16T02:06:01.108Z,99130.45
2018-07-16T02:08:29.131Z,99128.22
2018-07-16T02:10:57.201Z,99129.39
2018-07-16T02:13:25.025Z,99129.64
2018-07-16T02:15:52.848Z,99133.80
2018-07-16T02:18:20.617Z,99134.34
2018-07-16T02:20:48.791Z,99131.89
2018-07-16T02:23:16.578Z,99136.29
2018-07-16T02:25:44.981Z,99130.80
2018-07-16T02:28:12.782Z,99128.89
2018-07-16T02:30:40.945Z,99133.55
2018-07-16T02:33:09.634Z,99123.69
2018-07-16T02:35:37.414Z,99126.71
2018-07-16T02:38:05.219Z,99133.02
2018-07-16T02:40:33.142Z,99130.28
2018-07-16T02:43:00.919Z,99131.41
2018-07-16T02:45:28.727Z,99127.58
2018-07-16T02:47:57.049Z,99128.12
2018-07-16T02:50:24.971Z,99115.23
2018-07-16T02:52:52.841Z,99120.17
2018-07-16T02:55:20.653Z,99119.88
2018-07-16T02:57:48.413Z,99125.66
2018-07-16T03:00:16.227Z,99120.14
2018-07-16T03:02:44.000Z,99127.83
2018-07-16T03:05:19.099Z,99128.02
2018-07-16T03:07:47.862Z,99132.98
2018-07-16T03:10:15.743Z,99114.48
2018-07-16T03:12:43.962Z,99117.69
2018-07-16T03:15:11.862Z,99119.50
2018-07-16T03:17:39.776Z,99111.83
2018-07-16T03:20:07.653Z,99109.36
2018-07-16T03:22:35.472Z,99114.44
2018-07-16T03:25:03.639Z,99112.09
2018-07-16T03:27:31.446Z,99107.61
2018-07-16T03:29:59.275Z,99103.50
2018-07-16T03:32:27.049Z,99114.42
2018-07-16T03:34:54.879Z,99111.85
2018-07-16T03:37:22.721Z,99092.30
2018-07-16T03:39:50.595Z,99094.45
2018-07-16T03:42:18.386Z,99100.48
2018-07-16T03:44:46.361Z,99092.06
2018-07-16T03:47:14.124Z,99086.55
2018-07-16T03:49:41.939Z,99087.83
2018-07-16T03:52:09.954Z,99088.64
2018-07-16T03:54:37.729Z,99086.34
2018-07-16T03:57:05.662Z,99092.39
2018-07-16T03:59:33.493Z,99092.66
2018-07-16T04:02:01.381Z,99090.74
2018-07-16T04:04:29.144Z,99098.89
2018-07-16T04:06:56.946Z,99093.95
2018-07-16T04:09:24.829Z,99077.56
2018-07-16T04:11:52.637Z,99087.84
2018-07-16T04:14:20.825Z,99086.52
2018-07-16T04:16:48.589Z,99095.63
2018-07-16T04:19:16.377Z,99092.84
2018-07-16T04:21:44.145Z,99082.30
2018-07-16T04:24:11.931Z,99093.05
2018-07-16T04:26:39.697Z,99080.30
2018-07-16T04:29:07.746Z,99086.80
2018-07-16T04:31:35.734Z,99078.14
2018-07-16T04:34:03.610Z,99081.45
2018-07-16T04:36:31.380Z,99070.64
2018-07-16T04:38:59.162Z,99085.02
2018-07-16T04:41:26.987Z,99074.81
2018-07-16T04:43:54.781Z,99084.03
2018-07-16T04:46:22.614Z,99095.99
2018-07-16T04:48:50.370Z,99103.67
2018-07-16T04:51:18.190Z,99108.98
2018-07-16T04:53:46.040Z,99114.23
2018-07-16T04:56:13.851Z,99114.88
2018-07-16T04:58:41.660Z,99105.17
2018-07-16T05:01:09.656Z,99104.69
2018-07-16T05:03:37.453Z,99101.41
2018-07-16T05:06:05.256Z,99105.36
2018-07-16T05:08:33.355Z,99106.38
2018-07-16T05:11:01.175Z,99103.05
2018-07-16T05:13:29.473Z,99103.58
2018-07-16T05:15:57.285Z,99109.11
2018-07-16T05:18:25.214Z,99111.97
2018-07-16T05:20:52.902Z,99112.44
2018-07-16T05:23:20.730Z,99115.05
2018-07-16T05:25:48.502Z,99098.23
2018-07-16T05:28:16.333Z,99109.07
2018-07-16T05:30:44.149Z,99107.51
2018-07-16T05:33:11.943Z,99119.12
2018-07-16T05:35:39.724Z,99122.19
2018-07-16T05:38:07.560Z,99107.50
2018-07-16T05:40:35.312Z,99111.92
2018-07-16T05:43:03.196Z,99117.01
2018-07-16T05:45:30.991Z,99115.00
2018-07-16T05:47:58.760Z,99105.40
2018-07-16T05:50:26.536Z,99108.94
2018-07-16T05:52:54.336Z,99112.79
2018-07-16T05:55:22.583Z,99112.36
2018-07-16T05:57:51.221Z,99103.92
2018-07-16T06:00:19.007Z,99103.52
2018-07-16T06:02:46.817Z,99111.47
2018-07-16T06:05:14.837Z,99116.30
2018-07-16T06:07:42.897Z,99118.61
2018-07-16T06:10:10.697Z,99118.98
2018-07-16T06:12:38.482Z,99122.39
2018-07-16T06:15:06.255Z,99116.80
2018-07-16T06:17:34.278Z,99117.00
2018-07-16T06:20:02.116Z,99110.25
2018-07-16T06:22:29.898Z,99122.00
2018-07-16T06:24:57.711Z,99119.30
2018-07-16T06:27:26.438Z,99127.33
2018-07-16T06:29:54.230Z,99113.97
2018-07-16T06:32:22.096Z,99118.88
2018-07-16T06:34:50.006Z,99104.37
2018-07-16T06:37:17.854Z,99117.60
2018-07-16T06:39:45.713Z,99105.09
2018-07-16T06:42:13.496Z,99114.54
2018-07-16T06:44:41.342Z,99114.88
2018-07-16T06:47:09.158Z,99121.28
2018-07-16T06:49:37.287Z,99109.47
2018-07-16T06:52:05.484Z,99106.16
2018-07-16T06:54:33.287Z,99104.22
2018-07-16T06:57:01.100Z,99094.72
2018-07-16T06:59:29.582Z,99082.78
2018-07-16T07:01:57.525Z,99096.36
2018-07-16T07:04:25.324Z,99087.11
2018-07-16T07:06:53.194Z,99080.09
2018-07-16T07:09:20.982Z,99080.44
2018-07-16T07:11:48.776Z,99081.82
2018-07-16T07:14:16.611Z,99076.53
2018-07-16T07:16:44.535Z,99081.20
2018-07-16T07:19:12.496Z,99076.95
2018-07-16T07:21:40.361Z,99077.58
2018-07-16T07:24:08.864Z,99081.93
2018-07-16T07:26:36.702Z,99086.13
2018-07-16T07:29:04.574Z,99084.93
2018-07-16T07:31:32.395Z,99077.04
2018-07-16T07:34:00.204Z,99079.69
2018-07-16T07:36:27.998Z,99073.99
2018-07-16T07:38:56.112Z,99066.80
2018-07-16T07:41:23.976Z,99067.50
2018-07-16T07:43:51.781Z,99067.64
2018-07-16T07:46:19.587Z,99069.38
2018-07-16T07:48:47.386Z,99065.54
2018-07-16T07:51:15.173Z,99059.36
2018-07-16T07:53:42.997Z,99069.13
2018-07-16T07:56:10.842Z,99066.91
2018-07-16T07:58:38.640Z,99058.14
2018-07-16T08:01:07.134Z,99057.56
2018-07-16T08:03:34.955Z,99053.00
2018-07-16T08:06:06.481Z,99042.33
2018-07-16T08:08:35.242Z,99043.55
2018-07-16T08:11:03.808Z,99042.05
2018-07-16T08:13:32.199Z,99050.06
2018-07-16T08:16:00.060Z,99039.89
2018-07-16T08:18:27.990Z,99043.28
2018-07-16T08:20:56.114Z,99057.04
2018-07-16T08:23:23.924Z,99051.72
2018-07-16T08:25:52.021Z,99061.36
2018-07-16T08:28:20.113Z,99047.38
2018-07-16T08:30:47.998Z,99043.50
2018-07-16T08:33:15.842Z,99044.45
2018-07-16T08:35:43.666Z,99045.14
2018-07-16T08:38:11.520Z,99045.41
2018-07-16T08:40:39.411Z,99044.66
2018-07-16T08:43:07.310Z,99044.47
2018-07-16T08:45:35.167Z,99040.81
2018-07-16T08:48:03.038Z,99045.77
2018-07-16T08:50:31.287Z,99047.63
2018-07-16T08:52:59.117Z,99046.36
2018-07-16T08:55:27.871Z,99051.88
2018-07-16T08:57:55.666Z,99047.45
2018-07-16T09:00:23.529Z,99053.79
2018-07-16T09:02:51.328Z,99045.98
2018-07-16T09:05:19.245Z,99044.72
2018-07-16T09:07:47.085Z,99044.08
2018-07-16T09:10:14.884Z,99059.83
2018-07-16T09:12:42.699Z,99052.33
2018-07-16T09:15:11.896Z,99049.67
2018-07-16T09:17:39.773Z,99054.66
2018-07-16T09:20:07.664Z,99059.83
2018-07-16T09:22:35.481Z,99057.17
2018-07-16T09:25:03.414Z,99049.84
2018-07-16T09:27:31.203Z,99047.49
2018-07-16T09:29:59.002Z,99040.16
2018-07-16T09:32:26.849Z,99046.69
2018-07-16T09:34:54.882Z,99044.03
2018-07-16T09:37:22.796Z,99052.36
2018-07-16T09:39:50.617Z,99040.82
2018-07-16T09:42:18.438Z,99041.91
2018-07-16T09:44:46.241Z,99042.64
2018-07-16T09:47:14.052Z,99045.28
2018-07-16T09:49:41.985Z,99061.06
2018-07-16T09:52:09.765Z,99046.79
2018-07-16T09:54:37.627Z,99049.83
2018-07-16T09:57:05.747Z,99039.86
2018-07-16T09:59:33.623Z,99047.73
2018-07-16T10:02:07.008Z,99052.62
2018-07-16T10:04:34.879Z,99052.89
2018-07-16T10:07:02.723Z,99047.79
2018-07-16T10:09:30.637Z,99048.43
2018-07-16T10:11:58.616Z,99048.30
2018-07-16T10:14:26.444Z,99045.56
2018-07-16T10:16:54.261Z,99050.25
2018-07-16T10:19:22.073Z,99056.11
2018-07-16T10:21:49.880Z,99060.59
2018-07-16T10:24:17.654Z,99049.80
2018-07-16T10:26:45.441Z,99041.63
2018-07-16T10:29:13.252Z,99038.42
2018-07-16T10:31:41.125Z,99041.45
2018-07-16T10:34:08.934Z,99035.82
2018-07-16T10:36:36.717Z,99034.08
2018-07-16T10:39:06.186Z,99042.07
2018-07-16T10:41:34.024Z,99035.78
2018-07-16T10:44:01.819Z,99035.31
2018-07-16T10:46:29.639Z,99028.52
2018-07-16T10:48:57.531Z,99027.74
2018-07-16T10:51:25.399Z,99030.16
2018-07-16T10:53:53.281Z,99032.89
2018-07-16T10:56:21.210Z,99034.34
2018-07-16T10:58:48.999Z,99017.98
2018-07-16T11:01:16.881Z,99039.02
2018-07-16T11:03:44.684Z,99042.59
2018-07-16T11:06:18.199Z,99034.11
2018-07-16T11:08:45.979Z,99035.84
2018-07-16T11:11:14.350Z,99032.86
2018-07-16T11:13:42.149Z,99046.83
2018-07-16T11:16:09.994Z,99047.96
2018-07-16T11:18:37.869Z,99040.05
2018-07-16T11:21:05.691Z,99036.70
2018-07-16T11:23:33.500Z,99043.12
2018-07-16T11:26:01.329Z,99040.51
2018-07-16T11:28:29.102Z,99039.84
2018-07-16T11:30:56.937Z,99028.23
2018-07-16T11:33:24.757Z,99021.12
2018-07-16T11:35:52.575Z,99026.66
2018-07-16T11:38:20.380Z,99028.02
2018-07-16T11:40:48.386Z,99029.81
2018-07-16T11:43:16.382Z,99026.66
2018-07-16T11:45:44.939Z,99025.11
2018-07-16T11:48:12.749Z,99014.09
2018-07-16T11:50:40.634Z,99027.66
2018-07-16T11:53:08.509Z,99021.55
2018-07-16T11:55:36.324Z,99018.34
2018-07-16T11:58:04.152Z,99022.56
2018-07-16T12:00:31.979Z,99018.41
2018-07-16T12:02:59.773Z,99022.02
2018-07-16T12:05:27.608Z,99015.32
2018-07-16T12:07:55.474Z,99013.33
2018-07-16T12:10:23.314Z,99016.48
2018-07-16T12:12:51.226Z,99016.28
2018-07-16T12:15:19.353Z,99014.30
2018-07-16T12:17:47.170Z,99009.86
2018-07-16T12:20:15.338Z,99015.86
2018-07-16T12:22:44.026Z,99005.95
2018-07-16T12:25:11.835Z,99012.06
2018-07-16T12:27:39.630Z,99009.03
2018-07-16T12:30:07.465Z,99000.41
2018-07-16T12:32:35.664Z,99006.66
2018-07-16T12:35:03.805Z,99018.86
2018-07-16T12:37:31.882Z,98992.69
2018-07-16T12:40:01.150Z,99012.27
2018-07-16T12:42:29.031Z,98997.17
2018-07-16T12:44:56.845Z,98999.36
2018-07-16T12:47:24.667Z,99010.55
2018-07-16T12:49:52.495Z,99000.25
2018-07-16T12:52:20.584Z,98993.38
2018-07-16T12:54:48.416Z,98986.53
2018-07-16T12:57:16.246Z,98992.61
2018-07-16T12:59:44.031Z,98983.09
2018-07-16T13:02:11.882Z,98998.86
2018-07-16T13:04:39.785Z,98987.89
2018-07-16T13:07:07.670Z,98991.84
2018-07-16T13:09:35.466Z,98989.95
2018-07-16T13:12:03.303Z,98976.81
2018-07-16T13:14:33.467Z,98976.75
2018-07-16T13:17:01.910Z,98972.98
2018-07-16T13:19:30.031Z,98977.55
2018-07-16T13:21:57.886Z,98977.50
2018-07-16T13:24:25.677Z,98966.27
2018-07-16T13:26:53.485Z,98978.84
2018-07-16T13:29:21.388Z,98981.58
2018-07-16T13:31:49.335Z,98975.84
2018-07-16T13:34:17.141Z,98969.56
2018-07-16T13:36:44.961Z,98973.98
2018-07-16T13:39:12.789Z,98966.97
2018-07-16T13:41:40.583Z,98959.52
2018-07-16T13:44:08.438Z,98951.53
2018-07-16T13:46:36.298Z,98960.02
2018-07-16T13:49:04.102Z,98967.02
2018-07-16T13:51:32.089Z,98949.88
2018-07-16T13:54:00.276Z,98968.61
2018-07-16T13:56:28.065Z,98963.09
2018-07-16T13:58:55.869Z,98958.59
2018-07-16T14:01:23.647Z,98963.53
2018-07-16T14:03:51.491Z,98958.33
2018-07-16T14:06:19.285Z,98956.25
2018-07-16T14:08:47.182Z,98957.92
2018-07-16T14:11:15.389Z,98948.44
2018-07-16T14:13:43.157Z,98951.55
2018-07-16T14:16:11.634Z,98958.64
2018-07-16T14:18:39.410Z,98949.09
2018-07-16T14:21:07.277Z,98947.71
2018-07-16T14:23:35.118Z,98947.64
2018-07-16T14:26:02.921Z,98947.65
2018-07-16T14:28:30.721Z,98945.84
2018-07-16T14:30:58.506Z,98943.05
2018-07-16T14:33:26.334Z,98941.87
2018-07-16T14:35:56.404Z,98935.66
2018-07-16T14:38:24.337Z,98934.48
2018-07-16T14:40:52.155Z,98934.45
2018-07-16T14:43:19.937Z,98935.27
2018-07-16T14:45:48.037Z,98939.20
2018-07-16T14:48:15.873Z,98933.74
2018-07-16T14:50:43.956Z,98941.83
2018-07-16T14:53:11.778Z,98942.30
2018-07-16T14:55:39.541Z,98939.71
2018-07-16T14:58:07.399Z,98943.72
2018-07-16T15:00:35.195Z,98942.41
2018-07-16T15:03:03.038Z,98933.91
2018-07-16T15:05:30.826Z,98938.66
2018-07-16T15:07:58.628Z,98928.97
2018-07-16T15:10:26.435Z,98930.16
2018-07-16T15:12:54.269Z,98934.98
2018-07-16T15:15:22.093Z,98938.84
2018-07-16T15:17:49.940Z,98943.16
2018-07-16T15:20:18.688Z,98939.81
2018-07-16T15:22:47.516Z,98929.20
2018-07-16T15:25:15.435Z,98927.17
2018-07-16T15:27:43.201Z,98922.06
2018-07-16T15:30:11.288Z,98918.78
2018-07-16T15:32:39.074Z,98921.24
2018-07-16T15:35:06.873Z,98920.31
2018-07-16T15:37:34.710Z,98923.76
2018-07-16T15:40:02.483Z,98926.63
2018-07-16T15:42:30.274Z,98921.76
2018-07-16T15:44:58.122Z,98919.23
2018-07-16T15:47:25.918Z,98918.25
2018-07-16T15:49:53.742Z,98925.31
2018-07-16T15:52:21.499Z,98926.47
2018-07-16T15:54:49.253Z,98925.20
2018-07-16T15:57:17.022Z,98917.24
2018-07-16T15:59:44.789Z,98922.77
2018-07-16T16:02:12.650Z,98927.58
2018-07-16T16:04:40.497Z,98927.55
2018-07-16T16:07:08.338Z,98934.28
2018-07-16T16:09:37.730Z,98932.22
2018-07-16T16:12:05.730Z,98937.45
2018-07-16T16:14:34.231Z,98933.73
2018-07-16T16:17:02.098Z,98933.08
2018-07-16T16:19:29.994Z,98930.14
2018-07-16T16:21:57.883Z,98927.72
2018-07-16T16:24:25.703Z,98920.30
2018-07-16T16:26:53.559Z,98926.97
2018-07-16T16:29:21.370Z,98929.02
2018-07-16T16:31:49.285Z,98938.58
2018-07-16T16:34:17.659Z,98931.18
2018-07-16T16:36:45.501Z,98930.76
2018-07-16T16:39:14.329Z,98934.41
2018-07-16T16:41:42.105Z,98937.52
2018-07-16T16:44:09.955Z,98942.41
2018-07-16T16:46:37.793Z,98945.64
2018-07-16T16:49:05.642Z,98929.20
2018-07-16T16:51:33.802Z,98934.08
2018-07-16T16:54:01.638Z,98934.92
2018-07-16T16:56:29.456Z,98931.77
2018-07-16T16:58:57.290Z,98930.74
2018-07-16T17:01:25.081Z,98931.26
2018-07-16T17:03:53.002Z,98930.53
2018-07-16T17:06:21.007Z,98932.72
2018-07-16T17:08:48.910Z,98931.33
2018-07-16T17:11:16.777Z,98927.45
2018-07-16T17:13:44.630Z,98927.94
2018-07-16T17:16:12.478Z,98931.75
2018-07-16T17:18:40.763Z,98930.23
2018-07-16T17:21:08.716Z,98924.77
2018-07-16T17:23:36.534Z,98925.42
2018-07-16T17:26:04.360Z,98933.59
2018-07-16T17:28:32.497Z,98940.36
2018-07-16T17:31:00.320Z,98935.41
2018-07-16T17:33:28.094Z,98936.24
2018-07-16T17:35:55.989Z,98941.45
2018-07-16T17:38:23.800Z,98948.02
2018-07-16T17:40:51.965Z,98939.52
2018-07-16T17:43:20.298Z,98938.88
2018-07-16T17:45:48.328Z,98943.59
2018-07-16T17:48:16.156Z,98946.94
2018-07-16T17:50:43.978Z,98949.94
2018-07-16T17:53:11.830Z,98952.55
2018-07-16T17:55:39.719Z,98948.39
2018-07-16T17:58:07.583Z,98952.52
2018-07-16T18:00:35.410Z,98960.17
2018-07-16T18:03:03.207Z,98957.01
2018-07-16T18:05:31.069Z,98966.15
2018-07-16T18:07:58.863Z,98975.28
2018-07-16T18:10:26.653Z,98965.71
2018-07-16T18:12:54.429Z,98967.66
2018-07-16T18:15:22.223Z,98964.91
2018-07-16T18:17:50.083Z,98969.11
2018-07-16T18:20:17.945Z,98969.09
2018-07-16T18:22:45.788Z,98979.06
2018-07-16T18:25:13.884Z,98977.58
2018-07-16T18:27:41.821Z,98980.64
2018-07-16T18:30:09.773Z,98976.55
2018-07-16T18:32:37.641Z,98980.63
2018-07-16T18:35:05.530Z,98980.79
2018-07-16T18:37:33.469Z,98985.41
2018-07-16T18:40:01.688Z,98986.87
2018-07-16T18:42:29.514Z,98982.14
2018-07-16T18:44:57.412Z,98987.42
2018-07-16T18:47:25.280Z,98983.14
2018-07-16T18:49:53.193Z,98979.41
2018-07-16T18:52:21.301Z,98982.77
2018-07-16T18:54:49.155Z,98991.77
2018-07-16T18:57:17.053Z,98984.26
2018-07-16T18:59:44.889Z,98989.59
2018-07-16T19:02:12.752Z,98988.14
2018-07-16T19:04:40.581Z,98985.41
2018-07-16T19:07:08.402Z,98989.77
2018-07-16T19:09:36.524Z,98988.14
2018-07-16T19:12:04.470Z,98985.61
2018-07-16T19:14:32.321Z,98986.06
2018-07-16T19:17:00.626Z,98984.29
2018-07-16T19:19:28.405Z,98976.84
2018-07-16T19:21:56.258Z,98979.00
2018-07-16T19:24:24.106Z,98987.15
2018-07-16T19:26:51.893Z,98993.70
2018-07-16T19:29:19.712Z,98993.09
2018-07-16T19:31:47.513Z,98989.85
2018-07-16T19:34:15.362Z,98988.80
2018-07-16T19:36:43.228Z,98985.67
2018-07-16T19:39:12.238Z,98987.54
2018-07-16T19:41:40.073Z,98984.27
2018-07-16T19:44:07.998Z,98982.45
2018-07-16T19:46:35.997Z,98987.81
2018-07-16T19:49:03.870Z,98985.38
2018-07-16T19:51:31.834Z,98979.37
2018-07-16T19:53:59.869Z,98980.85
2018-07-16T19:56:27.740Z,98973.70
2018-07-16T19:58:55.598Z,98979.40
2018-07-16T20:01:23.437Z,98973.07
2018-07-16T20:03:51.413Z,98972.87
2018-07-16T20:06:19.261Z,98969.55
2018-07-16T20:08:47.069Z,98969.10
2018-07-16T20:11:14.881Z,98962.91
2018-07-16T20:13:42.693Z,98964.36
2018-07-16T20:16:10.604Z,98958.98
2018-07-16T20:18:38.407Z,98953.60
2018-07-16T20:21:06.240Z,98951.13
2018-07-16T20:23:34.091Z,98947.78
2018-07-16T20:26:01.892Z,98944.91
2018-07-16T20:28:29.721Z,98944.73
2018-07-16T20:30:57.562Z,98942.16
2018-07-16T20:33:25.321Z,98946.58
2018-07-16T20:35:53.135Z,98945.69
2018-07-16T20:38:20.942Z,98936.63
2018-07-16T20:40:48.778Z,98929.43
2018-07-16T20:43:16.609Z,98930.76
2018-07-16T20:45:44.439Z,98932.83
2018-07-16T20:48:12.224Z,98938.59
2018-07-16T20:50:40.102Z,98933.77
2018-07-16T20:53:07.900Z,98940.13
2018-07-16T20:55:35.771Z,98927.83
2018-07-16T20:58:03.619Z,98942.42
2018-07-16T21:00:31.422Z,98934.34
2018-07-16T21:02:59.642Z,98948.51
2018-07-16T21:05:27.458Z,98943.68
2018-07-16T21:07:55.348Z,98954.33
2018-07-16T21:10:23.135Z,98944.28
2018-07-16T21:12:50.921Z,98943.97
2018-07-16T21:15:18.769Z,98950.23
2018-07-16T21:17:46.594Z,98946.33
2018-07-16T21:20:14.372Z,98938.80
2018-07-16T21:22:42.225Z,98935.26
2018-07-16T21:25:10.857Z,98923.20
2018-07-16T21:27:38.725Z,98917.41
2018-07-16T21:30:06.607Z,98923.67
2018-07-16T21:32:34.446Z,98926.78
2018-07-16T21:35:02.471Z,98926.45
2018-07-16T21:37:30.246Z,98910.81
2018-07-16T21:39:58.028Z,98905.31
2018-07-16T21:42:25.794Z,98902.17
2018-07-16T21:44:53.600Z,98900.00
2018-07-16T21:47:21.413Z,98897.48
2018-07-16T21:49:49.233Z,98900.91
2018-07-16T21:52:17.021Z,98904.09
2018-07-16T21:54:44.789Z,98898.47
2018-07-16T21:57:12.569Z,98897.95
2018-07-16T21:59:40.381Z,98892.31
2018-07-16T22:02:08.223Z,98895.59
2018-07-16T22:04:36.002Z,98893.70
2018-07-16T22:07:03.785Z,98891.28
2018-07-16T22:09:31.545Z,98893.19
2018-07-16T22:11:59.378Z,98887.44
2018-07-16T22:14:27.164Z,98887.28
2018-07-16T22:16:54.989Z,98894.46
2018-07-16T22:19:22.811Z,98891.25
2018-07-16T22:21:50.594Z,98898.59
2018-07-16T22:24:18.406Z,98901.56
2018-07-16T22:26:46.169Z,98903.45
2018-07-16T22:29:14.010Z,98899.73
2018-07-16T22:31:41.814Z,98898.73
2018-07-16T22:36:43.117Z,98898.63
2018-07-16T22:39:11.303Z,98898.30
2018-07-16T22:41:39.132Z,98897.73
2018-07-16T22:44:07.033Z,98900.91
2018-07-16T22:46:34.898Z,98901.25
2018-07-16T22:49:02.733Z,98899.53
2018-07-16T22:51:30.498Z,98900.94
2018-07-16T22:53:58.282Z,98899.04
2018-07-16T22:56:26.130Z,98902.86
2018-07-16T22:58:53.984Z,98903.52
2018-07-16T23:01:21.791Z,98905.30
2018-07-16T23:03:49.621Z,98901.19
2018-07-16T23:06:17.390Z,98906.44
2018-07-16T23:08:45.203Z,98902.59
2018-07-16T23:11:13.016Z,98903.66
2018-07-16T23:13:40.814Z,98900.39
2018-07-16T23:16:08.617Z,98899.52
2018-07-16T23:18:36.402Z,98897.33
2018-07-16T23:21:04.161Z,98903.00
2018-07-16T23:23:31.929Z,98901.98
2018-07-16T23:25:59.694Z,98894.67
2018-07-16T23:28:27.469Z,98896.95
2018-07-16T23:30:55.231Z,98899.17
2018-07-16T23:33:22.999Z,98897.83
2018-07-16T23:35:50.762Z,98893.73
2018-07-16T23:38:18.562Z,98894.61
2018-07-16T23:40:46.397Z,98884.90
2018-07-16T23:43:14.182Z,98886.45
2018-07-16T23:45:42.048Z,98889.53
2018-07-16T23:48:09.838Z,98891.70
2018-07-16T23:50:37.702Z,98885.73
2018-07-16T23:53:05.538Z,98882.30
2018-07-16T23:55:33.306Z,98874.83
2018-07-16T23:58:01.120Z,98868.28
